sensor_id;sensor_type;location;lat;lon;timestamp;P1;durP1;ratioP1;P2;durP2;ratioP2
18217;SDS011;9234;49.344;11.120;2022-10-17T00:01:09;7.68;;;2.60;;
18217;SDS011;9234;49.344;11.120;2022-10-17T00:03:38;5.57;;;2.13;;
18217;SDS011;9234;49.344;11.120;2022-10-17T00:06:08;6.40;;;2.70;;
18217;SDS011;9234;49.344;11.120;2022-10-17T00:08:39;8.68;;;3.13;;
18217;SDS011;9234;49.344;11.120;2022-10-17T00:11:13;6.78;;;2.97;;
18217;SDS011;9234;49.344;11.120;2022-10-17T00:13:43;3.50;;;2.30;;
18217;SDS011;9234;49.344;11.120;2022-10-17T00:16:12;6.28;;;3.13;;
18217;SDS011;9234;49.344;11.120;2022-10-17T00:18:41;7.53;;;2.95;;
18217;SDS011;9234;49.344;11.120;2022-10-17T00:21:13;8.55;;;3.65;;
18217;SDS011;9234;49.344;11.120;2022-10-17T00:23:43;8.82;;;3.35;;
18217;SDS011;9234;49.344;11.120;2022-10-17T00:26:13;6.00;;;3.50;;
18217;SDS011;9234;49.344;11.120;2022-10-17T00:28:44;5.28;;;3.28;;
18217;SDS011;9234;49.344;11.120;2022-10-17T00:31:15;7.90;;;3.38;;
18217;SDS011;9234;49.344;11.120;2022-10-17T00:33:45;7.33;;;3.33;;
18217;SDS011;9234;49.344;11.120;2022-10-17T00:36:16;8.65;;;3.80;;
18217;SDS011;9234;49.344;11.120;2022-10-17T00:38:47;5.57;;;3.42;;
18217;SDS011;9234;49.344;11.120;2022-10-17T00:41:20;10.25;;;3.47;;
18217;SDS011;9234;49.344;11.120;2022-10-17T00:43:53;4.10;;;3.00;;
18217;SDS011;9234;49.344;11.120;2022-10-17T00:46:25;5.95;;;3.25;;
18217;SDS011;9234;49.344;11.120;2022-10-17T00:48:56;8.05;;;3.30;;
18217;SDS011;9234;49.344;11.120;2022-10-17T00:51:29;6.88;;;3.00;;
18217;SDS011;9234;49.344;11.120;2022-10-17T00:54:07;6.95;;;2.63;;
18217;SDS011;9234;49.344;11.120;2022-10-17T00:56:43;5.57;;;3.40;;
18217;SDS011;9234;49.344;11.120;2022-10-17T00:59:15;5.32;;;3.05;;
18217;SDS011;9234;49.344;11.120;2022-10-17T01:01:47;4.65;;;3.55;;
18217;SDS011;9234;49.344;11.120;2022-10-17T01:04:25;4.03;;;3.00;;
18217;SDS011;9234;49.344;11.120;2022-10-17T01:06:53;4.93;;;3.33;;
18217;SDS011;9234;49.344;11.120;2022-10-17T01:09:21;6.30;;;2.72;;
18217;SDS011;9234;49.344;11.120;2022-10-17T01:11:54;6.93;;;3.40;;
18217;SDS011;9234;49.344;11.120;2022-10-17T01:14:35;9.95;;;3.33;;
18217;SDS011;9234;49.344;11.120;2022-10-17T01:17:15;5.40;;;3.42;;
18217;SDS011;9234;49.344;11.120;2022-10-17T01:19:58;4.93;;;3.05;;
18217;SDS011;9234;49.344;11.120;2022-10-17T01:23:37;4.47;;;2.75;;
18217;SDS011;9234;49.344;11.120;2022-10-17T01:26:34;6.13;;;2.88;;
18217;SDS011;9234;49.344;11.120;2022-10-17T01:29:32;8.07;;;3.42;;
18217;SDS011;9234;49.344;11.120;2022-10-17T01:32:21;4.85;;;3.42;;
18217;SDS011;9234;49.344;11.120;2022-10-17T01:34:57;6.25;;;3.25;;
18217;SDS011;9234;49.344;11.120;2022-10-17T01:37:39;3.90;;;3.50;;
18217;SDS011;9234;49.344;11.120;2022-10-17T01:40:13;8.80;;;3.10;;
18217;SDS011;9234;49.344;11.120;2022-10-17T01:42:55;6.40;;;3.00;;
18217;SDS011;9234;49.344;11.120;2022-10-17T01:45:31;8.23;;;2.92;;
18217;SDS011;9234;49.344;11.120;2022-10-17T01:48:10;4.57;;;3.00;;
18217;SDS011;9234;49.344;11.120;2022-10-17T01:50:45;6.65;;;2.65;;
18217;SDS011;9234;49.344;11.120;2022-10-17T01:53:19;19.88;;;3.53;;
18217;SDS011;9234;49.344;11.120;2022-10-17T01:55:55;6.07;;;3.22;;
18217;SDS011;9234;49.344;11.120;2022-10-17T01:58:30;5.18;;;3.03;;
18217;SDS011;9234;49.344;11.120;2022-10-17T02:01:04;7.20;;;3.42;;
18217;SDS011;9234;49.344;11.120;2022-10-17T02:03:37;3.38;;;2.38;;
18217;SDS011;9234;49.344;11.120;2022-10-17T02:06:09;6.93;;;3.13;;
18217;SDS011;9234;49.344;11.120;2022-10-17T02:08:39;5.35;;;3.53;;
18217;SDS011;9234;49.344;11.120;2022-10-17T02:11:10;4.47;;;2.83;;
18217;SDS011;9234;49.344;11.120;2022-10-17T02:13:47;5.82;;;3.30;;
18217;SDS011;9234;49.344;11.120;2022-10-17T02:16:33;7.53;;;3.00;;
18217;SDS011;9234;49.344;11.120;2022-10-17T02:22:12;5.18;;;2.88;;
18217;SDS011;9234;49.344;11.120;2022-10-17T02:24:53;4.60;;;3.10;;
18217;SDS011;9234;49.344;11.120;2022-10-17T02:27:32;5.60;;;3.08;;
18217;SDS011;9234;49.344;11.120;2022-10-17T02:30:11;5.20;;;2.50;;
18217;SDS011;9234;49.344;11.120;2022-10-17T02:32:48;3.85;;;2.60;;
18217;SDS011;9234;49.344;11.120;2022-10-17T02:35:23;7.15;;;3.38;;
18217;SDS011;9234;49.344;11.120;2022-10-17T02:37:56;3.78;;;3.17;;
18217;SDS011;9234;49.344;11.120;2022-10-17T02:40:26;5.05;;;2.90;;
18217;SDS011;9234;49.344;11.120;2022-10-17T02:42:57;5.20;;;2.78;;
18217;SDS011;9234;49.344;11.120;2022-10-17T02:45:28;4.35;;;3.10;;
18217;SDS011;9234;49.344;11.120;2022-10-17T02:48:03;6.55;;;2.88;;
18217;SDS011;9234;49.344;11.120;2022-10-17T02:50:40;10.02;;;2.90;;
18217;SDS011;9234;49.344;11.120;2022-10-17T02:53:21;4.00;;;2.75;;
18217;SDS011;9234;49.344;11.120;2022-10-17T02:56:02;5.20;;;3.20;;
18217;SDS011;9234;49.344;11.120;2022-10-17T02:58:38;6.85;;;2.97;;
18217;SDS011;9234;49.344;11.120;2022-10-17T03:01:11;6.25;;;3.30;;
18217;SDS011;9234;49.344;11.120;2022-10-17T03:03:40;4.90;;;3.25;;
18217;SDS011;9234;49.344;11.120;2022-10-17T03:06:09;7.00;;;3.20;;
18217;SDS011;9234;49.344;11.120;2022-10-17T03:08:37;5.18;;;3.00;;
18217;SDS011;9234;49.344;11.120;2022-10-17T03:11:06;5.97;;;3.20;;
18217;SDS011;9234;49.344;11.120;2022-10-17T03:13:34;8.82;;;3.25;;
18217;SDS011;9234;49.344;11.120;2022-10-17T03:16:05;7.10;;;3.70;;
18217;SDS011;9234;49.344;11.120;2022-10-17T03:18:34;4.88;;;3.13;;
18217;SDS011;9234;49.344;11.120;2022-10-17T03:21:03;6.00;;;3.33;;
18217;SDS011;9234;49.344;11.120;2022-10-17T03:23:33;5.78;;;3.10;;
18217;SDS011;9234;49.344;11.120;2022-10-17T03:26:03;10.25;;;3.67;;
18217;SDS011;9234;49.344;11.120;2022-10-17T03:28:33;8.85;;;3.70;;
18217;SDS011;9234;49.344;11.120;2022-10-17T03:31:05;8.30;;;3.75;;
18217;SDS011;9234;49.344;11.120;2022-10-17T03:33:36;6.43;;;2.75;;
18217;SDS011;9234;49.344;11.120;2022-10-17T03:36:05;4.85;;;2.55;;
18217;SDS011;9234;49.344;11.120;2022-10-17T03:38:37;7.53;;;2.47;;
18217;SDS011;9234;49.344;11.120;2022-10-17T03:41:06;5.43;;;2.50;;
18217;SDS011;9234;49.344;11.120;2022-10-17T03:43:36;5.30;;;3.00;;
18217;SDS011;9234;49.344;11.120;2022-10-17T03:46:04;6.10;;;2.75;;
18217;SDS011;9234;49.344;11.120;2022-10-17T03:48:34;3.25;;;2.38;;
18217;SDS011;9234;49.344;11.120;2022-10-17T03:51:04;7.22;;;2.90;;
18217;SDS011;9234;49.344;11.120;2022-10-17T03:53:42;3.47;;;2.70;;
18217;SDS011;9234;49.344;11.120;2022-10-17T03:56:11;4.18;;;2.58;;
18217;SDS011;9234;49.344;11.120;2022-10-17T03:58:47;5.07;;;2.83;;
18217;SDS011;9234;49.344;11.120;2022-10-17T04:01:16;5.72;;;3.08;;
18217;SDS011;9234;49.344;11.120;2022-10-17T04:03:47;4.47;;;3.33;;
18217;SDS011;9234;49.344;11.120;2022-10-17T04:06:17;5.32;;;3.60;;
18217;SDS011;9234;49.344;11.120;2022-10-17T04:08:48;4.00;;;2.97;;
18217;SDS011;9234;49.344;11.120;2022-10-17T04:11:32;7.00;;;3.95;;
18217;SDS011;9234;49.344;11.120;2022-10-17T04:14:02;8.15;;;3.55;;
18217;SDS011;9234;49.344;11.120;2022-10-17T04:16:30;4.43;;;3.10;;
18217;SDS011;9234;49.344;11.120;2022-10-17T04:19:02;7.40;;;2.78;;
18217;SDS011;9234;49.344;11.120;2022-10-17T04:21:37;4.30;;;3.10;;
18217;SDS011;9234;49.344;11.120;2022-10-17T04:24:09;5.47;;;3.10;;
18217;SDS011;9234;49.344;11.120;2022-10-17T04:27:07;4.72;;;2.70;;
18217;SDS011;9234;49.344;11.120;2022-10-17T04:29:39;3.60;;;3.10;;
18217;SDS011;9234;49.344;11.120;2022-10-17T04:32:18;7.07;;;2.92;;
18217;SDS011;9234;49.344;11.120;2022-10-17T04:34:49;5.32;;;2.70;;
18217;SDS011;9234;49.344;11.120;2022-10-17T04:37:20;7.35;;;2.58;;
18217;SDS011;9234;49.344;11.120;2022-10-17T04:39:51;4.82;;;2.92;;
18217;SDS011;9234;49.344;11.120;2022-10-17T04:42:20;4.38;;;3.20;;
18217;SDS011;9234;49.344;11.120;2022-10-17T04:44:50;3.70;;;3.00;;
18217;SDS011;9234;49.344;11.120;2022-10-17T04:47:21;8.88;;;3.25;;
18217;SDS011;9234;49.344;11.120;2022-10-17T04:49:50;5.25;;;2.80;;
18217;SDS011;9234;49.344;11.120;2022-10-17T04:52:20;6.23;;;3.23;;
18217;SDS011;9234;49.344;11.120;2022-10-17T04:54:48;10.88;;;3.45;;
18217;SDS011;9234;49.344;11.120;2022-10-17T04:57:20;3.85;;;3.03;;
18217;SDS011;9234;49.344;11.120;2022-10-17T04:59:55;6.60;;;3.40;;
18217;SDS011;9234;49.344;11.120;2022-10-17T05:02:42;5.32;;;4.10;;
18217;SDS011;9234;49.344;11.120;2022-10-17T05:05:11;7.67;;;5.37;;
18217;SDS011;9234;49.344;11.120;2022-10-17T05:07:39;8.52;;;4.90;;
18217;SDS011;9234;49.344;11.120;2022-10-17T05:10:11;6.60;;;4.60;;
18217;SDS011;9234;49.344;11.120;2022-10-17T05:12:44;11.68;;;5.10;;
18217;SDS011;9234;49.344;11.120;2022-10-17T05:15:15;8.70;;;5.93;;
18217;SDS011;9234;49.344;11.120;2022-10-17T05:17:44;8.10;;;4.85;;
18217;SDS011;9234;49.344;11.120;2022-10-17T05:20:12;8.50;;;5.00;;
18217;SDS011;9234;49.344;11.120;2022-10-17T05:22:40;6.68;;;4.57;;
18217;SDS011;9234;49.344;11.120;2022-10-17T05:25:10;9.50;;;5.50;;
18217;SDS011;9234;49.344;11.120;2022-10-17T05:27:38;7.45;;;5.28;;
18217;SDS011;9234;49.344;11.120;2022-10-17T05:30:08;8.32;;;5.18;;
18217;SDS011;9234;49.344;11.120;2022-10-17T05:32:38;10.80;;;5.10;;
18217;SDS011;9234;49.344;11.120;2022-10-17T05:35:07;13.07;;;4.95;;
18217;SDS011;9234;49.344;11.120;2022-10-17T05:37:37;12.75;;;5.18;;
18217;SDS011;9234;49.344;11.120;2022-10-17T05:40:06;6.20;;;4.35;;
18217;SDS011;9234;49.344;11.120;2022-10-17T05:42:35;10.85;;;4.60;;
18217;SDS011;9234;49.344;11.120;2022-10-17T05:45:10;10.45;;;5.35;;
18217;SDS011;9234;49.344;11.120;2022-10-17T05:47:38;8.63;;;4.70;;
18217;SDS011;9234;49.344;11.120;2022-10-17T05:50:08;6.60;;;4.43;;
18217;SDS011;9234;49.344;11.120;2022-10-17T05:52:55;8.02;;;4.72;;
18217;SDS011;9234;49.344;11.120;2022-10-17T05:55:23;7.85;;;4.78;;
18217;SDS011;9234;49.344;11.120;2022-10-17T05:57:52;8.15;;;4.63;;
18217;SDS011;9234;49.344;11.120;2022-10-17T06:00:27;8.40;;;4.85;;
18217;SDS011;9234;49.344;11.120;2022-10-17T06:02:57;8.20;;;5.10;;
18217;SDS011;9234;49.344;11.120;2022-10-17T06:05:25;8.25;;;5.00;;
18217;SDS011;9234;49.344;11.120;2022-10-17T06:07:55;11.13;;;5.07;;
18217;SDS011;9234;49.344;11.120;2022-10-17T06:10:29;8.95;;;4.70;;
18217;SDS011;9234;49.344;11.120;2022-10-17T06:12:58;8.43;;;4.50;;
18217;SDS011;9234;49.344;11.120;2022-10-17T06:15:28;6.63;;;5.15;;
18217;SDS011;9234;49.344;11.120;2022-10-17T06:18:01;5.85;;;4.13;;
18217;SDS011;9234;49.344;11.120;2022-10-17T06:20:29;7.57;;;4.70;;
18217;SDS011;9234;49.344;11.120;2022-10-17T06:22:57;8.80;;;4.53;;
18217;SDS011;9234;49.344;11.120;2022-10-17T06:25:43;6.65;;;5.57;;
18217;SDS011;9234;49.344;11.120;2022-10-17T06:28:11;9.90;;;4.50;;
18217;SDS011;9234;49.344;11.120;2022-10-17T06:30:40;8.18;;;5.35;;
18217;SDS011;9234;49.344;11.120;2022-10-17T06:33:09;7.68;;;5.32;;
18217;SDS011;9234;49.344;11.120;2022-10-17T06:35:37;10.38;;;5.40;;
18217;SDS011;9234;49.344;11.120;2022-10-17T06:38:06;8.45;;;5.15;;
18217;SDS011;9234;49.344;11.120;2022-10-17T06:40:35;5.65;;;5.05;;
18217;SDS011;9234;49.344;11.120;2022-10-17T06:43:03;8.95;;;5.15;;
18217;SDS011;9234;49.344;11.120;2022-10-17T06:45:53;8.50;;;5.35;;
18217;SDS011;9234;49.344;11.120;2022-10-17T06:48:32;8.73;;;5.28;;
18217;SDS011;9234;49.344;11.120;2022-10-17T06:51:09;7.57;;;6.20;;
18217;SDS011;9234;49.344;11.120;2022-10-17T06:53:46;11.02;;;5.30;;
18217;SDS011;9234;49.344;11.120;2022-10-17T06:56:34;11.73;;;6.43;;
18217;SDS011;9234;49.344;11.120;2022-10-17T06:59:05;9.13;;;6.05;;
18217;SDS011;9234;49.344;11.120;2022-10-17T07:01:39;7.00;;;5.30;;
18217;SDS011;9234;49.344;11.120;2022-10-17T07:04:12;10.40;;;5.13;;
18217;SDS011;9234;49.344;11.120;2022-10-17T07:06:41;8.20;;;6.03;;
18217;SDS011;9234;49.344;11.120;2022-10-17T07:09:20;11.25;;;6.20;;
18217;SDS011;9234;49.344;11.120;2022-10-17T07:11:49;10.02;;;6.45;;
18217;SDS011;9234;49.344;11.120;2022-10-17T07:14:17;15.77;;;6.10;;
18217;SDS011;9234;49.344;11.120;2022-10-17T07:16:47;9.98;;;5.78;;
18217;SDS011;9234;49.344;11.120;2022-10-17T07:19:22;9.55;;;5.90;;
18217;SDS011;9234;49.344;11.120;2022-10-17T07:21:50;9.55;;;5.55;;
18217;SDS011;9234;49.344;11.120;2022-10-17T07:24:18;11.38;;;5.95;;
18217;SDS011;9234;49.344;11.120;2022-10-17T07:26:52;5.72;;;5.13;;
18217;SDS011;9234;49.344;11.120;2022-10-17T07:29:20;6.63;;;5.93;;
18217;SDS011;9234;49.344;11.120;2022-10-17T07:32:22;9.05;;;5.55;;
18217;SDS011;9234;49.344;11.120;2022-10-17T07:34:50;7.90;;;6.05;;
18217;SDS011;9234;49.344;11.120;2022-10-17T07:37:18;7.40;;;5.57;;
18217;SDS011;9234;49.344;11.120;2022-10-17T07:39:51;7.30;;;5.40;;
18217;SDS011;9234;49.344;11.120;2022-10-17T07:42:21;10.60;;;5.93;;
18217;SDS011;9234;49.344;11.120;2022-10-17T07:44:52;8.98;;;6.53;;
18217;SDS011;9234;49.344;11.120;2022-10-17T07:47:22;9.88;;;6.07;;
18217;SDS011;9234;49.344;11.120;2022-10-17T07:49:51;8.20;;;5.82;;
18217;SDS011;9234;49.344;11.120;2022-10-17T07:52:19;7.45;;;6.47;;
18217;SDS011;9234;49.344;11.120;2022-10-17T07:54:48;8.38;;;5.55;;
18217;SDS011;9234;49.344;11.120;2022-10-17T07:57:16;10.38;;;6.72;;
18217;SDS011;9234;49.344;11.120;2022-10-17T07:59:44;7.18;;;6.47;;
18217;SDS011;9234;49.344;11.120;2022-10-17T08:02:13;8.55;;;6.95;;
18217;SDS011;9234;49.344;11.120;2022-10-17T08:04:50;7.60;;;6.15;;
18217;SDS011;9234;49.344;11.120;2022-10-17T08:07:19;8.15;;;6.93;;
18217;SDS011;9234;49.344;11.120;2022-10-17T08:09:54;8.93;;;6.30;;
18217;SDS011;9234;49.344;11.120;2022-10-17T08:12:22;8.60;;;7.05;;
18217;SDS011;9234;49.344;11.120;2022-10-17T08:14:51;10.25;;;6.72;;
18217;SDS011;9234;49.344;11.120;2022-10-17T08:17:19;10.43;;;6.57;;
18217;SDS011;9234;49.344;11.120;2022-10-17T08:19:47;7.20;;;6.07;;
18217;SDS011;9234;49.344;11.120;2022-10-17T08:22:17;7.68;;;5.78;;
18217;SDS011;9234;49.344;11.120;2022-10-17T08:24:45;7.47;;;5.40;;
18217;SDS011;9234;49.344;11.120;2022-10-17T08:27:13;8.43;;;5.30;;
18217;SDS011;9234;49.344;11.120;2022-10-17T08:29:46;7.63;;;5.00;;
18217;SDS011;9234;49.344;11.120;2022-10-17T08:32:18;9.00;;;5.20;;
18217;SDS011;9234;49.344;11.120;2022-10-17T08:34:47;7.78;;;5.70;;
18217;SDS011;9234;49.344;11.120;2022-10-17T08:37:16;5.88;;;4.80;;
18217;SDS011;9234;49.344;11.120;2022-10-17T08:39:45;7.63;;;5.07;;
18217;SDS011;9234;49.344;11.120;2022-10-17T08:42:20;6.95;;;5.13;;
18217;SDS011;9234;49.344;11.120;2022-10-17T08:45:12;4.65;;;4.18;;
18217;SDS011;9234;49.344;11.120;2022-10-17T08:47:51;4.28;;;3.88;;
18217;SDS011;9234;49.344;11.120;2022-10-17T08:50:27;7.03;;;4.32;;
18217;SDS011;9234;49.344;11.120;2022-10-17T08:53:05;4.88;;;4.13;;
18217;SDS011;9234;49.344;11.120;2022-10-17T08:55:43;5.85;;;4.28;;
18217;SDS011;9234;49.344;11.120;2022-10-17T08:58:16;4.78;;;3.70;;
18217;SDS011;9234;49.344;11.120;2022-10-17T09:01:00;6.25;;;3.83;;
18217;SDS011;9234;49.344;11.120;2022-10-17T09:03:44;6.10;;;3.85;;
18217;SDS011;9234;49.344;11.120;2022-10-17T09:06:30;6.18;;;3.85;;
18217;SDS011;9234;49.344;11.120;2022-10-17T09:09:09;3.75;;;3.35;;
18217;SDS011;9234;49.344;11.120;2022-10-17T09:11:54;4.15;;;3.78;;
18217;SDS011;9234;49.344;11.120;2022-10-17T09:14:43;4.72;;;3.50;;
18217;SDS011;9234;49.344;11.120;2022-10-17T09:17:44;3.28;;;2.97;;
18217;SDS011;9234;49.344;11.120;2022-10-17T09:20:22;5.18;;;3.47;;
18217;SDS011;9234;49.344;11.120;2022-10-17T09:22:55;4.20;;;3.00;;
18217;SDS011;9234;49.344;11.120;2022-10-17T09:25:28;4.18;;;2.97;;
18217;SDS011;9234;49.344;11.120;2022-10-17T09:28:11;3.58;;;3.20;;
18217;SDS011;9234;49.344;11.120;2022-10-17T09:30:45;4.07;;;2.80;;
18217;SDS011;9234;49.344;11.120;2022-10-17T09:33:19;3.15;;;2.80;;
18217;SDS011;9234;49.344;11.120;2022-10-17T09:36:14;6.88;;;3.13;;
18217;SDS011;9234;49.344;11.120;2022-10-17T09:38:47;3.92;;;2.70;;
18217;SDS011;9234;49.344;11.120;2022-10-17T09:41:21;2.80;;;2.60;;
18217;SDS011;9234;49.344;11.120;2022-10-17T09:44:16;3.38;;;2.45;;
18217;SDS011;9234;49.344;11.120;2022-10-17T09:46:51;3.95;;;2.45;;
18217;SDS011;9234;49.344;11.120;2022-10-17T09:49:44;3.50;;;2.53;;
18217;SDS011;9234;49.344;11.120;2022-10-17T09:52:15;2.83;;;2.38;;
18217;SDS011;9234;49.344;11.120;2022-10-17T09:54:54;2.90;;;2.55;;
18217;SDS011;9234;49.344;11.120;2022-10-17T09:57:29;2.75;;;2.50;;
18217;SDS011;9234;49.344;11.120;2022-10-17T10:00:21;3.22;;;2.92;;
18217;SDS011;9234;49.344;11.120;2022-10-17T10:03:07;3.97;;;2.75;;
18217;SDS011;9234;49.344;11.120;2022-10-17T10:05:39;3.35;;;3.03;;
18217;SDS011;9234;49.344;11.120;2022-10-17T10:08:12;4.90;;;2.80;;
18217;SDS011;9234;49.344;11.120;2022-10-17T10:10:43;8.85;;;2.90;;
18217;SDS011;9234;49.344;11.120;2022-10-17T10:13:17;3.70;;;2.60;;
18217;SDS011;9234;49.344;11.120;2022-10-17T10:15:47;3.05;;;2.70;;
18217;SDS011;9234;49.344;11.120;2022-10-17T10:18:25;3.05;;;2.28;;
18217;SDS011;9234;49.344;11.120;2022-10-17T10:21:02;3.95;;;2.35;;
18217;SDS011;9234;49.344;11.120;2022-10-17T10:23:35;3.50;;;2.50;;
18217;SDS011;9234;49.344;11.120;2022-10-17T10:26:13;2.80;;;2.60;;
18217;SDS011;9234;49.344;11.120;2022-10-17T10:28:52;3.42;;;2.85;;
18217;SDS011;9234;49.344;11.120;2022-10-17T10:31:29;4.00;;;2.85;;
18217;SDS011;9234;49.344;11.120;2022-10-17T10:34:02;2.55;;;2.35;;
18217;SDS011;9234;49.344;11.120;2022-10-17T10:36:45;2.55;;;2.28;;
18217;SDS011;9234;49.344;11.120;2022-10-17T10:39:26;3.88;;;2.83;;
18217;SDS011;9234;49.344;11.120;2022-10-17T10:42:16;4.90;;;2.47;;
18217;SDS011;9234;49.344;11.120;2022-10-17T10:44:52;3.30;;;2.78;;
18217;SDS011;9234;49.344;11.120;2022-10-17T10:47:27;5.78;;;2.78;;
18217;SDS011;9234;49.344;11.120;2022-10-17T10:50:14;3.97;;;2.55;;
18217;SDS011;9234;49.344;11.120;2022-10-17T10:52:53;3.78;;;2.45;;
18217;SDS011;9234;49.344;11.120;2022-10-17T10:55:39;4.00;;;3.22;;
18217;SDS011;9234;49.344;11.120;2022-10-17T10:58:20;2.70;;;2.45;;
18217;SDS011;9234;49.344;11.120;2022-10-17T11:01:01;2.35;;;2.15;;
18217;SDS011;9234;49.344;11.120;2022-10-17T11:03:40;2.92;;;2.50;;
18217;SDS011;9234;49.344;11.120;2022-10-17T11:06:21;4.13;;;2.85;;
18217;SDS011;9234;49.344;11.120;2022-10-17T11:08:58;3.45;;;3.10;;
18217;SDS011;9234;49.344;11.120;2022-10-17T11:11:41;3.58;;;2.78;;
18217;SDS011;9234;49.344;11.120;2022-10-17T11:14:15;2.78;;;2.55;;
18217;SDS011;9234;49.344;11.120;2022-10-17T11:16:53;4.50;;;2.50;;
18217;SDS011;9234;49.344;11.120;2022-10-17T11:19:33;3.40;;;2.67;;
18217;SDS011;9234;49.344;11.120;2022-10-17T11:22:12;2.78;;;2.50;;
18217;SDS011;9234;49.344;11.120;2022-10-17T11:24:44;3.03;;;2.72;;
18217;SDS011;9234;49.344;11.120;2022-10-17T11:27:22;2.97;;;2.53;;
18217;SDS011;9234;49.344;11.120;2022-10-17T11:29:52;4.50;;;2.70;;
18217;SDS011;9234;49.344;11.120;2022-10-17T11:32:23;3.03;;;2.75;;
18217;SDS011;9234;49.344;11.120;2022-10-17T11:35:02;3.45;;;3.15;;
18217;SDS011;9234;49.344;11.120;2022-10-17T11:37:40;3.17;;;2.78;;
18217;SDS011;9234;49.344;11.120;2022-10-17T11:40:18;3.33;;;2.83;;
18217;SDS011;9234;49.344;11.120;2022-10-17T11:42:56;6.15;;;2.95;;
18217;SDS011;9234;49.344;11.120;2022-10-17T11:45:30;4.18;;;2.67;;
18217;SDS011;9234;49.344;11.120;2022-10-17T11:48:11;3.28;;;2.50;;
18217;SDS011;9234;49.344;11.120;2022-10-17T11:50:48;3.15;;;2.55;;
18217;SDS011;9234;49.344;11.120;2022-10-17T11:53:49;5.07;;;2.65;;
18217;SDS011;9234;49.344;11.120;2022-10-17T11:56:25;4.70;;;2.78;;
18217;SDS011;9234;49.344;11.120;2022-10-17T11:59:16;4.60;;;2.45;;
18217;SDS011;9234;49.344;11.120;2022-10-17T12:02:13;4.15;;;2.38;;
18217;SDS011;9234;49.344;11.120;2022-10-17T12:04:57;2.83;;;2.50;;
18217;SDS011;9234;49.344;11.120;2022-10-17T12:07:35;6.13;;;2.65;;
18217;SDS011;9234;49.344;11.120;2022-10-17T12:10:15;4.22;;;2.53;;
18217;SDS011;9234;49.344;11.120;2022-10-17T12:12:55;3.92;;;2.45;;
18217;SDS011;9234;49.344;11.120;2022-10-17T12:15:27;3.20;;;2.58;;
18217;SDS011;9234;49.344;11.120;2022-10-17T12:17:57;6.47;;;2.88;;
18217;SDS011;9234;49.344;11.120;2022-10-17T12:20:30;3.70;;;2.92;;
18217;SDS011;9234;49.344;11.120;2022-10-17T12:23:04;3.50;;;2.75;;
18217;SDS011;9234;49.344;11.120;2022-10-17T12:25:50;3.92;;;2.95;;
18217;SDS011;9234;49.344;11.120;2022-10-17T12:28:29;3.85;;;2.60;;
18217;SDS011;9234;49.344;11.120;2022-10-17T12:31:01;2.95;;;2.75;;
18217;SDS011;9234;49.344;11.120;2022-10-17T12:33:36;7.45;;;2.83;;
18217;SDS011;9234;49.344;11.120;2022-10-17T12:51:26;7.22;;;2.80;;
18217;SDS011;9234;49.344;11.120;2022-10-17T12:54:06;2.97;;;2.55;;
18217;SDS011;9234;49.344;11.120;2022-10-17T12:56:39;6.53;;;2.28;;
18217;SDS011;9234;49.344;11.120;2022-10-17T12:59:12;2.08;;;1.98;;
18217;SDS011;9234;49.344;11.120;2022-10-17T13:01:44;5.60;;;2.20;;
18217;SDS011;9234;49.344;11.120;2022-10-17T13:04:16;4.63;;;2.08;;
18217;SDS011;9234;49.344;11.120;2022-10-17T13:06:46;3.47;;;2.20;;
18217;SDS011;9234;49.344;11.120;2022-10-17T13:09:25;5.97;;;1.80;;
18217;SDS011;9234;49.344;11.120;2022-10-17T13:11:57;3.10;;;1.83;;
18217;SDS011;9234;49.344;11.120;2022-10-17T13:14:27;3.38;;;2.00;;
18217;SDS011;9234;49.344;11.120;2022-10-17T13:16:59;4.88;;;2.33;;
18217;SDS011;9234;49.344;11.120;2022-10-17T13:19:31;3.35;;;2.28;;
18217;SDS011;9234;49.344;11.120;2022-10-17T13:22:10;3.92;;;2.30;;
18217;SDS011;9234;49.344;11.120;2022-10-17T13:24:46;5.68;;;2.53;;
18217;SDS011;9234;49.344;11.120;2022-10-17T13:27:20;2.42;;;2.22;;
18217;SDS011;9234;49.344;11.120;2022-10-17T13:29:53;3.65;;;2.40;;
18217;SDS011;9234;49.344;11.120;2022-10-17T13:32:23;2.78;;;2.33;;
18217;SDS011;9234;49.344;11.120;2022-10-17T13:35:05;3.25;;;2.53;;
18217;SDS011;9234;49.344;11.120;2022-10-17T13:37:37;5.22;;;2.60;;
18217;SDS011;9234;49.344;11.120;2022-10-17T13:40:14;2.88;;;2.58;;
18217;SDS011;9234;49.344;11.120;2022-10-17T13:43:08;4.57;;;2.30;;
18217;SDS011;9234;49.344;11.120;2022-10-17T13:45:44;3.17;;;2.42;;
18217;SDS011;9234;49.344;11.120;2022-10-17T13:48:18;6.47;;;2.60;;
18217;SDS011;9234;49.344;11.120;2022-10-17T13:50:50;3.03;;;2.80;;
18217;SDS011;9234;49.344;11.120;2022-10-17T13:53:28;4.30;;;2.70;;
18217;SDS011;9234;49.344;11.120;2022-10-17T13:56:01;3.20;;;2.72;;
18217;SDS011;9234;49.344;11.120;2022-10-17T13:58:52;6.47;;;3.20;;
18217;SDS011;9234;49.344;11.120;2022-10-17T14:01:23;5.60;;;3.20;;
18217;SDS011;9234;49.344;11.120;2022-10-17T14:03:54;6.53;;;4.45;;
18217;SDS011;9234;49.344;11.120;2022-10-17T14:06:36;3.10;;;2.85;;
18217;SDS011;9234;49.344;11.120;2022-10-17T14:09:17;4.35;;;3.50;;
18217;SDS011;9234;49.344;11.120;2022-10-17T14:11:58;5.28;;;3.22;;
18217;SDS011;9234;49.344;11.120;2022-10-17T14:14:29;2.97;;;2.78;;
18217;SDS011;9234;49.344;11.120;2022-10-17T14:17:20;3.67;;;3.38;;
18217;SDS011;9234;49.344;11.120;2022-10-17T14:19:53;6.80;;;3.40;;
18217;SDS011;9234;49.344;11.120;2022-10-17T14:22:44;4.10;;;3.70;;
18217;SDS011;9234;49.344;11.120;2022-10-17T14:25:34;6.60;;;4.22;;
18217;SDS011;9234;49.344;11.120;2022-10-17T14:28:12;6.00;;;3.53;;
18217;SDS011;9234;49.344;11.120;2022-10-17T14:30:44;4.90;;;3.40;;
18217;SDS011;9234;49.344;11.120;2022-10-17T14:33:23;7.03;;;4.32;;
18217;SDS011;9234;49.344;11.120;2022-10-17T14:35:56;6.65;;;3.75;;
18217;SDS011;9234;49.344;11.120;2022-10-17T14:38:27;4.90;;;4.38;;
18217;SDS011;9234;49.344;11.120;2022-10-17T14:40:57;5.53;;;4.07;;
18217;SDS011;9234;49.344;11.120;2022-10-17T14:43:53;5.50;;;3.80;;
18217;SDS011;9234;49.344;11.120;2022-10-17T14:46:25;4.00;;;3.60;;
18217;SDS011;9234;49.344;11.120;2022-10-17T14:48:55;6.50;;;4.28;;
18217;SDS011;9234;49.344;11.120;2022-10-17T14:51:34;5.20;;;4.35;;
18217;SDS011;9234;49.344;11.120;2022-10-17T14:54:22;5.47;;;4.95;;
18217;SDS011;9234;49.344;11.120;2022-10-17T14:56:54;7.03;;;3.88;;
18217;SDS011;9234;49.344;11.120;2022-10-17T14:59:24;6.53;;;4.38;;
18217;SDS011;9234;49.344;11.120;2022-10-17T15:02:12;6.32;;;4.70;;
18217;SDS011;9234;49.344;11.120;2022-10-17T15:04:41;7.07;;;4.45;;
18217;SDS011;9234;49.344;11.120;2022-10-17T15:07:11;9.48;;;5.28;;
18217;SDS011;9234;49.344;11.120;2022-10-17T15:09:41;5.30;;;4.28;;
18217;SDS011;9234;49.344;11.120;2022-10-17T15:12:12;8.45;;;4.80;;
18217;SDS011;9234;49.344;11.120;2022-10-17T15:14:44;6.28;;;3.83;;
18217;SDS011;9234;49.344;11.120;2022-10-17T15:17:14;7.18;;;4.20;;
18217;SDS011;9234;49.344;11.120;2022-10-17T15:19:46;5.07;;;3.90;;
18217;SDS011;9234;49.344;11.120;2022-10-17T15:22:15;9.20;;;4.78;;
18217;SDS011;9234;49.344;11.120;2022-10-17T15:24:45;4.80;;;3.85;;
18217;SDS011;9234;49.344;11.120;2022-10-17T15:27:14;6.85;;;3.47;;
18217;SDS011;9234;49.344;11.120;2022-10-17T15:29:45;6.65;;;3.75;;
18217;SDS011;9234;49.344;11.120;2022-10-17T15:32:14;3.95;;;3.60;;
18217;SDS011;9234;49.344;11.120;2022-10-17T15:34:42;7.70;;;3.95;;
18217;SDS011;9234;49.344;11.120;2022-10-17T15:37:15;4.05;;;3.65;;
18217;SDS011;9234;49.344;11.120;2022-10-17T15:39:48;4.35;;;3.30;;
18217;SDS011;9234;49.344;11.120;2022-10-17T15:42:20;4.30;;;3.90;;
18217;SDS011;9234;49.344;11.120;2022-10-17T15:44:54;6.53;;;4.00;;
18217;SDS011;9234;49.344;11.120;2022-10-17T15:47:23;6.22;;;4.03;;
18217;SDS011;9234;49.344;11.120;2022-10-17T15:49:56;5.93;;;3.70;;
18217;SDS011;9234;49.344;11.120;2022-10-17T15:52:25;8.32;;;3.92;;